Regen! 1.2 mm/h

Letzte 24h
Datum & Zeit Temp. Luft-
feuchte
Wind Nieder-
schlag
Luftdruck Tendenz
IN OUT IN OUT Richtung Min. Max.
2018.12.11 08:56 5.9 °C 2.3 °C 71% 79% WSW 246 ° 20 km/h 40 km/h 0.0 mm 1020.30 hPa langsam steigend
09:56 5.9 °C 2.6 °C 72% 78% SW 231 ° 22 km/h 42 km/h 0.0 mm 1020.50 hPa langsam steigend
10:56 5.9 °C 2.6 °C 72% 78% W 261 ° 20 km/h 42 km/h 0.0 mm 1020.50 hPa langsam steigend
11:56 6.0 °C 2.5 °C 71% 78% SW 225 ° 19 km/h 33 km/h 0.6 mm 1020.40 hPa langsam steigend
12:56 6.1 °C 3.0 °C 71% 80% SW 230 ° 22 km/h 37 km/h 0.3 mm 1020.20 hPa langsam fallend
13:56 6.2 °C 3.1 °C 71% 79% SW 234 ° 23 km/h 45 km/h 0.0 mm 1020.10 hPa langsam fallend
14:56 6.2 °C 2.9 °C 71% 77% SW 232 ° 23 km/h 43 km/h 0.0 mm 1020.60 hPa langsam steigend
15:56 6.1 °C 2.7 °C 71% 77% WSW 242 ° 26 km/h 45 km/h 1.2 mm 1021.00 hPa langsam steigend
16:56 6.0 °C 2.3 °C 71% 78% WSW 239 ° 23 km/h 55 km/h 0.0 mm 1020.90 hPa langsam steigend
17:56 6.0 °C 2.3 °C 71% 79% SW 234 ° 24 km/h 43 km/h 0.0 mm 1020.90 hPa langsam steigend
18:56 5.9 °C 2.4 °C 72% 78% SW 227 ° 24 km/h 54 km/h 0.0 mm 1021.30 hPa langsam steigend
19:56 5.9 °C 2.3 °C 72% 79% SW 233 ° 22 km/h 38 km/h 0.0 mm 1021.40 hPa langsam steigend
20:56 5.8 °C 2.4 °C 72% 79% SW 228 ° 24 km/h 39 km/h 1.2 mm 1021.10 hPa langsam steigend
21:56 5.7 °C 2.1 °C 72% 79% SW 224 ° 24 km/h 43 km/h 0.3 mm 1021.50 hPa langsam steigend
22:56 5.7 °C 2.1 °C 72% 81% W 262 ° 19 km/h 37 km/h 0.3 mm 1021.80 hPa langsam steigend
23:56 5.7 °C 2.0 °C 72% 82% SW 228 ° 22 km/h 34 km/h 1.2 mm 1021.60 hPa langsam steigend
2018.12.12 00:56 5.7 °C 2.0 °C 73% 81% SW 228 ° 23 km/h 44 km/h 0.9 mm 1021.50 hPa gleichbleibend
01:56 5.5 °C 1.6 °C 73% 85% SW 220 ° 21 km/h 38 km/h 2.4 mm 1021.70 hPa gleichbleibend
02:57 5.5 °C 1.4 °C 73% 87% SW 227 ° 20 km/h 37 km/h 1.5 mm 1021.80 hPa langsam steigend
03:57 5.4 °C 1.2 °C 73% 88% SW 223 ° 20 km/h 37 km/h 1.5 mm 1022.00 hPa langsam steigend
04:58 5.4 °C 1.2 °C 73% 89% SW 224 ° 17 km/h 31 km/h 2.1 mm 1022.10 hPa langsam steigend
05:58 5.3 °C 1.4 °C 73% 89% SW 231 ° 16 km/h 28 km/h 1.5 mm 1022.20 hPa langsam steigend
06:58 5.2 °C 1.0 °C 73% 89% SW 227 ° 17 km/h 33 km/h 2.7 mm 1022.80 hPa langsam steigend
07:58 5.2 °C 1.1 °C 73% 89% WSW 238 ° 17 km/h 28 km/h 1.5 mm 1023.10 hPa langsam steigend

 

Verlauf: letzte 24h
WIND   Windrose
(Klicke ins Bild, um den Hintergrund abzuschalten)
WIND   Windverkauf 2.5h
TEMP   Temperatur 2.5h
Druck   Luftdruck 2.5h
Regen   Luftdruck 2.5h